sim
Sign-in with your pilot id or email,
or register
Callsign
Passwort

Schedule Details

Flight Number: EWG9547 (2)
Departure: Fuerteventura Airport (GCFV) at 13:10
Arrival: Dusseldorf International Airport (EDDL) at 17:45
Route: Eurowings Passenger Schedule. Enter filed route here before submitting Pirep.

Weather Information
Getting current METAR information for GCFV 211830Z 01019KT CAVOK 26/18 Q1013
Getting current METAR information for EDDL 211850Z 04004KT CAVOK 17/11 Q1026 NOSIG

Schedule Frequency

Route Map